SAS1817 ENBR-ENGM
Flight info
| Callsign | SAS1817 |
|---|---|
| Flight time | 0h 34m |
| Altitude | 27000 |
| Route | GOKAB2C GOKAB DCT ULVAN DCT ADOPI ADOPI3M |
| Aircraft | A320/M-SDE3FGHIRWY/LB1 |
Departure
| Time | 2026-05-06 17:54 |
|---|---|
| Airport | Bergen Airport, Flesland (ENBR) |
Arrival
| Time | 2026-05-06 18:29 |
|---|---|
| Airport | Oslo-Gardermoen International Airport (ENGM) |
| Time | Latitude | Longitude | Altitude | Speed | Heading |
|---|---|---|---|---|---|
| 2026-05-06 17:29 | 60.28861 | 5.22573 | 173 ft | 0 kts | 60° |
| 2026-05-06 17:46 | 60.28855 | 5.22552 | 173 ft | 2 kts | 60° |
| 2026-05-06 17:46 | 60.28846 | 5.22521 | 172 ft | 3 kts | 60° |
| 2026-05-06 17:47 | 60.28835 | 5.22485 | 169 ft | 3 kts | 50° |
| 2026-05-06 17:47 | 60.28825 | 5.22460 | 168 ft | 0 kts | 50° |
| 2026-05-06 17:49 | 60.28848 | 5.22453 | 168 ft | 12 kts | 339° |
| 2026-05-06 17:50 | 60.28947 | 5.22297 | 163 ft | 22 kts | 320° |
| 2026-05-06 17:50 | 60.29110 | 5.22217 | 163 ft | 27 kts | 351° |
| 2026-05-06 17:50 | 60.29312 | 5.22149 | 161 ft | 32 kts | 350° |
| 2026-05-06 17:50 | 60.29556 | 5.22066 | 152 ft | 39 kts | 350° |
| 2026-05-06 17:51 | 60.29838 | 5.21968 | 151 ft | 42 kts | 349° |
| 2026-05-06 17:51 | 60.30110 | 5.21875 | 163 ft | 37 kts | 352° |
| 2026-05-06 17:51 | 60.30351 | 5.21798 | 171 ft | 30 kts | 351° |
| 2026-05-06 17:51 | 60.30546 | 5.21733 | 178 ft | 25 kts | 351° |
| 2026-05-06 17:52 | 60.30666 | 5.21630 | 182 ft | 16 kts | 286° |
| 2026-05-06 17:52 | 60.30663 | 5.21573 | 183 ft | 0 kts | 258° |
| 2026-05-06 17:53 | 60.30659 | 5.21533 | 183 ft | 7 kts | 260° |
| 2026-05-06 17:53 | 60.30627 | 5.21388 | 191 ft | 13 kts | 205° |
| 2026-05-06 17:53 | 60.30521 | 5.21419 | 176 ft | 19 kts | 171° |
| 2026-05-06 17:53 | 60.30291 | 5.21496 | 165 ft | 64 kts | 170° |
| 2026-05-06 17:54 | 60.29624 | 5.21720 | 148 ft | 127 kts | 170° |
| 2026-05-06 17:54 | 60.28597 | 5.22065 | 353 ft | 156 kts | 171° |
| 2026-05-06 17:54 | 60.27549 | 5.22394 | 1044 ft | 156 kts | 174° |
| 2026-05-06 17:54 | 60.26444 | 5.22764 | 1590 ft | 170 kts | 173° |
| 2026-05-06 17:55 | 60.25204 | 5.23179 | 1929 ft | 192 kts | 173° |
| 2026-05-06 17:55 | 60.23803 | 5.23640 | 2264 ft | 217 kts | 173° |
| 2026-05-06 17:55 | 60.22233 | 5.24160 | 2692 ft | 241 kts | 172° |
| 2026-05-06 17:55 | 60.20507 | 5.24736 | 3263 ft | 259 kts | 173° |
| 2026-05-06 17:56 | 60.18705 | 5.25342 | 4137 ft | 264 kts | 173° |
| 2026-05-06 17:56 | 60.16881 | 5.25955 | 5102 ft | 267 kts | 172° |
| 2026-05-06 17:56 | 60.15039 | 5.26569 | 6018 ft | 270 kts | 173° |
| 2026-05-06 17:56 | 60.13183 | 5.27318 | 6898 ft | 276 kts | 162° |
| 2026-05-06 17:57 | 60.11549 | 5.29378 | 7721 ft | 283 kts | 134° |
| 2026-05-06 17:57 | 60.10517 | 5.32752 | 8555 ft | 289 kts | 109° |
| 2026-05-06 17:57 | 60.09970 | 5.36637 | 9426 ft | 292 kts | 103° |
| 2026-05-06 17:57 | 60.09484 | 5.40611 | 10217 ft | 298 kts | 103° |
| 2026-05-06 17:58 | 60.08981 | 5.44800 | 10507 ft | 320 kts | 103° |
| 2026-05-06 17:58 | 60.08444 | 5.49294 | 10732 ft | 344 kts | 103° |
| 2026-05-06 17:58 | 60.07869 | 5.54117 | 10892 ft | 367 kts | 103° |
| 2026-05-06 17:58 | 60.07453 | 5.59254 | 11238 ft | 380 kts | 90° |
| 2026-05-06 17:59 | 60.07825 | 5.64493 | 11837 ft | 383 kts | 70° |
| 2026-05-06 17:59 | 60.09039 | 5.69214 | 12478 ft | 383 kts | 50° |
| 2026-05-06 17:59 | 60.10962 | 5.72854 | 13114 ft | 381 kts | 32° |
| 2026-05-06 17:59 | 60.13089 | 5.76088 | 13785 ft | 388 kts | 38° |
| 2026-05-06 18:00 | 60.14986 | 5.80008 | 14354 ft | 395 kts | 44° |
| 2026-05-06 18:00 | 60.16846 | 5.84120 | 14877 ft | 401 kts | 44° |
| 2026-05-06 18:00 | 60.18731 | 5.88312 | 15342 ft | 407 kts | 44° |
| 2026-05-06 18:00 | 60.20645 | 5.92575 | 15789 ft | 413 kts | 43° |
| 2026-05-06 18:01 | 60.22585 | 5.96896 | 16235 ft | 419 kts | 43° |
| 2026-05-06 18:01 | 60.24552 | 6.01288 | 16665 ft | 425 kts | 43° |
| 2026-05-06 18:01 | 60.26540 | 6.05737 | 17116 ft | 431 kts | 43° |
| 2026-05-06 18:01 | 60.28558 | 6.10258 | 17581 ft | 436 kts | 43° |
| 2026-05-06 18:02 | 60.30597 | 6.14835 | 18005 ft | 441 kts | 42° |
| 2026-05-06 18:02 | 60.32653 | 6.19475 | 18452 ft | 447 kts | 41° |
| 2026-05-06 18:02 | 60.34734 | 6.24184 | 18821 ft | 451 kts | 42° |
| 2026-05-06 18:02 | 60.36829 | 6.28945 | 19205 ft | 456 kts | 42° |
| 2026-05-06 18:03 | 60.38934 | 6.33785 | 19610 ft | 461 kts | 44° |
| 2026-05-06 18:03 | 60.40783 | 6.39195 | 20014 ft | 474 kts | 57° |
| 2026-05-06 18:03 | 60.42042 | 6.45323 | 20418 ft | 485 kts | 72° |
| 2026-05-06 18:03 | 60.42531 | 6.52108 | 20803 ft | 491 kts | 89° |
| 2026-05-06 18:04 | 60.42417 | 6.59045 | 21204 ft | 495 kts | 93° |
| 2026-05-06 18:04 | 60.42247 | 6.66014 | 21591 ft | 498 kts | 94° |
| 2026-05-06 18:04 | 60.42057 | 6.73022 | 21966 ft | 501 kts | 94° |
| 2026-05-06 18:04 | 60.41856 | 6.80084 | 22346 ft | 504 kts | 95° |
| 2026-05-06 18:05 | 60.41719 | 6.84879 | 22624 ft | 506 kts | 95° |
| 2026-05-06 18:05 | 60.41446 | 6.94332 | 23104 ft | 510 kts | 95° |
| 2026-05-06 18:05 | 60.41310 | 6.99091 | 23338 ft | 512 kts | 95° |
| 2026-05-06 18:05 | 60.41103 | 7.06308 | 23704 ft | 515 kts | 95° |
| 2026-05-06 18:06 | 60.40898 | 7.13566 | 24006 ft | 517 kts | 95° |
| 2026-05-06 18:06 | 60.40689 | 7.20838 | 24348 ft | 519 kts | 95° |
| 2026-05-06 18:06 | 60.40475 | 7.28134 | 24639 ft | 521 kts | 95° |
| 2026-05-06 18:06 | 60.40253 | 7.35469 | 24927 ft | 523 kts | 95° |
| 2026-05-06 18:07 | 60.40024 | 7.42821 | 25214 ft | 525 kts | 96° |
| 2026-05-06 18:07 | 60.39786 | 7.50194 | 25549 ft | 526 kts | 96° |
| 2026-05-06 18:07 | 60.39539 | 7.57578 | 25844 ft | 527 kts | 96° |
| 2026-05-06 18:07 | 60.39288 | 7.64987 | 26125 ft | 529 kts | 96° |
| 2026-05-06 18:08 | 60.39033 | 7.72422 | 26389 ft | 531 kts | 97° |
| 2026-05-06 18:08 | 60.38775 | 7.79875 | 26673 ft | 533 kts | 97° |
| 2026-05-06 18:08 | 60.38514 | 7.87357 | 26923 ft | 534 kts | 97° |
| 2026-05-06 18:08 | 60.38253 | 7.94845 | 27013 ft | 535 kts | 97° |
| 2026-05-06 18:09 | 60.37991 | 8.02345 | 27017 ft | 535 kts | 97° |
| 2026-05-06 18:09 | 60.37723 | 8.09833 | 26980 ft | 534 kts | 97° |
| 2026-05-06 18:09 | 60.37448 | 8.17317 | 26858 ft | 532 kts | 97° |
| 2026-05-06 18:09 | 60.37170 | 8.24729 | 26096 ft | 526 kts | 97° |
| 2026-05-06 18:10 | 60.36889 | 8.32057 | 25359 ft | 521 kts | 97° |
| 2026-05-06 18:10 | 60.36606 | 8.39313 | 24624 ft | 515 kts | 97° |
| 2026-05-06 18:10 | 60.36322 | 8.46492 | 23951 ft | 510 kts | 97° |
| 2026-05-06 18:10 | 60.36037 | 8.53604 | 23251 ft | 505 kts | 97° |
| 2026-05-06 18:11 | 60.35751 | 8.60635 | 22562 ft | 500 kts | 97° |
| 2026-05-06 18:11 | 60.35471 | 8.67526 | 22355 ft | 484 kts | 97° |
| 2026-05-06 18:11 | 60.35199 | 8.74187 | 22217 ft | 468 kts | 97° |
| 2026-05-06 18:11 | 60.34932 | 8.80622 | 22061 ft | 453 kts | 97° |
| 2026-05-06 18:12 | 60.34672 | 8.86800 | 21910 ft | 429 kts | 98° |
| 2026-05-06 18:12 | 60.34419 | 8.92688 | 21769 ft | 415 kts | 98° |
| 2026-05-06 18:12 | 60.34171 | 8.98422 | 21573 ft | 405 kts | 98° |
| 2026-05-06 18:12 | 60.33924 | 9.04057 | 21239 ft | 401 kts | 98° |
| 2026-05-06 18:13 | 60.33676 | 9.09634 | 20860 ft | 398 kts | 98° |
| 2026-05-06 18:13 | 60.33426 | 9.15183 | 20480 ft | 395 kts | 98° |
| 2026-05-06 18:13 | 60.33176 | 9.20681 | 20097 ft | 393 kts | 98° |
| 2026-05-06 18:13 | 60.32925 | 9.26154 | 19727 ft | 390 kts | 98° |
| 2026-05-06 18:14 | 60.32674 | 9.31591 | 19367 ft | 388 kts | 98° |
| 2026-05-06 18:14 | 60.32569 | 9.37016 | 19019 ft | 387 kts | 88° |
| 2026-05-06 18:14 | 60.32927 | 9.42385 | 18688 ft | 385 kts | 76° |
| 2026-05-06 18:14 | 60.33631 | 9.47574 | 18301 ft | 382 kts | 73° |
| 2026-05-06 18:15 | 60.34348 | 9.52717 | 17941 ft | 379 kts | 74° |
| 2026-05-06 18:15 | 60.35051 | 9.57815 | 17633 ft | 374 kts | 74° |
| 2026-05-06 18:15 | 60.35731 | 9.62807 | 17491 ft | 363 kts | 74° |
| 2026-05-06 18:15 | 60.36394 | 9.67703 | 17209 ft | 360 kts | 74° |
| 2026-05-06 18:16 | 60.37040 | 9.72501 | 16885 ft | 357 kts | 75° |
| 2026-05-06 18:16 | 60.37678 | 9.77330 | 16620 ft | 354 kts | 75° |
| 2026-05-06 18:16 | 60.38307 | 9.82116 | 16293 ft | 351 kts | 75° |
| 2026-05-06 18:16 | 60.38937 | 9.86857 | 16074 ft | 347 kts | 74° |
| 2026-05-06 18:17 | 60.39576 | 9.91538 | 15765 ft | 346 kts | 74° |
| 2026-05-06 18:17 | 60.40221 | 9.96227 | 15410 ft | 345 kts | 74° |
| 2026-05-06 18:17 | 60.40854 | 10.00883 | 15127 ft | 341 kts | 75° |
| 2026-05-06 18:17 | 60.41470 | 10.05485 | 14856 ft | 337 kts | 75° |
| 2026-05-06 18:18 | 60.42074 | 10.10036 | 14582 ft | 333 kts | 75° |
| 2026-05-06 18:18 | 60.42670 | 10.14541 | 14331 ft | 329 kts | 75° |
| 2026-05-06 18:18 | 60.43262 | 10.19015 | 13980 ft | 329 kts | 76° |
| 2026-05-06 18:18 | 60.43852 | 10.23482 | 13665 ft | 327 kts | 76° |
| 2026-05-06 18:19 | 60.44216 | 10.27980 | 13347 ft | 322 kts | 89° |
| 2026-05-06 18:19 | 60.44364 | 10.32492 | 12951 ft | 321 kts | 88° |
| 2026-05-06 18:19 | 60.44511 | 10.36967 | 12532 ft | 316 kts | 88° |
| 2026-05-06 18:19 | 60.44654 | 10.41393 | 12127 ft | 314 kts | 88° |
| 2026-05-06 18:20 | 60.44793 | 10.45779 | 11716 ft | 310 kts | 88° |
| 2026-05-06 18:20 | 60.44929 | 10.50113 | 11323 ft | 307 kts | 88° |
| 2026-05-06 18:20 | 60.45063 | 10.54398 | 10937 ft | 303 kts | 88° |
| 2026-05-06 18:20 | 60.45196 | 10.58643 | 10559 ft | 301 kts | 88° |
| 2026-05-06 18:21 | 60.45325 | 10.62847 | 10260 ft | 297 kts | 88° |
| 2026-05-06 18:21 | 60.45448 | 10.67012 | 9943 ft | 295 kts | 88° |
| 2026-05-06 18:21 | 60.45567 | 10.71137 | 9607 ft | 292 kts | 88° |
| 2026-05-06 18:21 | 60.45685 | 10.75185 | 9389 ft | 281 kts | 88° |
| 2026-05-06 18:22 | 60.45798 | 10.79075 | 8943 ft | 273 kts | 88° |
| 2026-05-06 18:22 | 60.45907 | 10.82883 | 8412 ft | 269 kts | 88° |
| 2026-05-06 18:22 | 60.46015 | 10.86653 | 7857 ft | 267 kts | 87° |
| 2026-05-06 18:22 | 60.46120 | 10.90390 | 7286 ft | 265 kts | 87° |
| 2026-05-06 18:23 | 60.46219 | 10.94097 | 6723 ft | 262 kts | 87° |
| 2026-05-06 18:23 | 60.46318 | 10.97780 | 6170 ft | 263 kts | 87° |
| 2026-05-06 18:23 | 60.46419 | 11.01447 | 6003 ft | 259 kts | 87° |
| 2026-05-06 18:23 | 60.46466 | 11.05085 | 5848 ft | 259 kts | 96° |
| 2026-05-06 18:24 | 60.46013 | 11.08600 | 5719 ft | 258 kts | 116° |
| 2026-05-06 18:24 | 60.45015 | 11.11586 | 5585 ft | 256 kts | 136° |
| 2026-05-06 18:24 | 60.43735 | 11.14090 | 5324 ft | 255 kts | 137° |
| 2026-05-06 18:24 | 60.42447 | 11.16555 | 4945 ft | 255 kts | 142° |
| 2026-05-06 18:25 | 60.40928 | 11.18306 | 4638 ft | 250 kts | 163° |
| 2026-05-06 18:25 | 60.39240 | 11.18942 | 4352 ft | 246 kts | 182° |
| 2026-05-06 18:25 | 60.37568 | 11.18449 | 4035 ft | 243 kts | 198° |
| 2026-05-06 18:25 | 60.35944 | 11.17498 | 3699 ft | 242 kts | 198° |
| 2026-05-06 18:26 | 60.34342 | 11.16560 | 3372 ft | 236 kts | 198° |
| 2026-05-06 18:26 | 60.32836 | 11.15684 | 3063 ft | 221 kts | 198° |
| 2026-05-06 18:26 | 60.31398 | 11.14848 | 2764 ft | 209 kts | 198° |
| 2026-05-06 18:26 | 60.30017 | 11.14044 | 2485 ft | 205 kts | 198° |
| 2026-05-06 18:27 | 60.28646 | 11.13247 | 2200 ft | 205 kts | 198° |
| 2026-05-06 18:27 | 60.27300 | 11.12467 | 1921 ft | 196 kts | 198° |
| 2026-05-06 18:27 | 60.26035 | 11.11734 | 1667 ft | 183 kts | 198° |
| 2026-05-06 18:27 | 60.24859 | 11.11053 | 1399 ft | 169 kts | 198° |
| 2026-05-06 18:28 | 60.23784 | 11.10431 | 1165 ft | 155 kts | 198° |
| 2026-05-06 18:28 | 60.22774 | 11.09846 | 957 ft | 149 kts | 198° |
| 2026-05-06 18:28 | 60.21792 | 11.09278 | 762 ft | 145 kts | 198° |
| 2026-05-06 18:28 | 60.20838 | 11.08724 | 676 ft | 134 kts | 197° |
| 2026-05-06 18:29 | 60.20167 | 11.08338 | 676 ft | 67 kts | 195° |
| 2026-05-06 18:29 | 60.19948 | 11.08311 | 674 ft | 21 kts | 153° |
| 2026-05-06 18:29 | 60.19879 | 11.08547 | 677 ft | 19 kts | 107° |
| 2026-05-06 18:29 | 60.19843 | 11.08799 | 677 ft | 20 kts | 107° |
| 2026-05-06 18:30 | 60.19804 | 11.09067 | 681 ft | 19 kts | 105° |
| 2026-05-06 18:30 | 60.19761 | 11.09304 | 681 ft | 16 kts | 135° |
| 2026-05-06 18:30 | 60.19660 | 11.09319 | 684 ft | 13 kts | 194° |
| 2026-05-06 18:30 | 60.19586 | 11.09276 | 685 ft | 0 kts | 196° |